createdAt,value
2022-10-04T00:02:31.160Z,14.68
2022-10-04T00:05:04.143Z,10.10
2022-10-04T00:07:35.514Z,10.63
2022-10-04T00:10:08.816Z,8.02
2022-10-04T00:12:41.111Z,9.38
2022-10-04T00:15:21.804Z,8.60
2022-10-04T00:18:24.294Z,9.18
2022-10-04T00:21:01.895Z,6.80
2022-10-04T00:23:42.384Z,10.25
2022-10-04T00:26:35.720Z,11.75
2022-10-04T00:29:31.263Z,13.10
2022-10-04T00:32:29.920Z,10.05
2022-10-04T00:34:59.263Z,10.75
2022-10-04T00:37:28.525Z,14.65
2022-10-04T00:40:04.669Z,11.55
2022-10-04T00:42:42.875Z,11.63
2022-10-04T00:45:29.549Z,13.80
2022-10-04T00:48:39.345Z,8.45
2022-10-04T00:51:22.765Z,11.57
2022-10-04T00:53:59.914Z,9.15
2022-10-04T00:56:33.846Z,11.55
2022-10-04T00:59:18.469Z,12.25
2022-10-04T01:01:52.066Z,8.80
2022-10-04T01:04:29.836Z,9.13
2022-10-04T01:07:02.923Z,11.20
2022-10-04T01:09:34.780Z,9.95
2022-10-04T01:12:08.703Z,8.77
2022-10-04T01:14:48.662Z,12.88
2022-10-04T01:17:16.745Z,10.80
2022-10-04T01:19:53.253Z,9.85
2022-10-04T01:22:35.440Z,10.57
2022-10-04T01:25:03.779Z,9.95
2022-10-04T01:27:38.641Z,10.75
2022-10-04T01:30:10.279Z,11.73
2022-10-04T01:32:40.107Z,10.05
2022-10-04T01:35:10.717Z,10.13
2022-10-04T01:37:40.877Z,9.23
2022-10-04T01:40:10.619Z,9.85
2022-10-04T01:42:44.839Z,14.98
2022-10-04T01:45:21.305Z,11.00
2022-10-04T01:47:54.532Z,10.70
2022-10-04T01:50:29.651Z,12.02
2022-10-04T01:53:10.109Z,13.43
2022-10-04T01:55:41.257Z,14.85
2022-10-04T01:58:14.082Z,9.50
2022-10-04T02:00:51.524Z,8.15
2022-10-04T02:03:25.416Z,8.40
2022-10-04T02:05:59.696Z,10.18
2022-10-04T02:08:32.596Z,12.35
2022-10-04T02:11:02.845Z,19.83
2022-10-04T02:13:36.843Z,12.80
2022-10-04T02:16:09.794Z,11.02
2022-10-04T02:18:39.289Z,7.70
2022-10-04T02:21:08.521Z,10.77
2022-10-04T02:23:39.998Z,13.70
2022-10-04T02:26:09.105Z,11.38
2022-10-04T02:28:39.444Z,8.27
2022-10-04T02:31:26.779Z,12.23
2022-10-04T02:33:58.657Z,7.60
2022-10-04T02:36:29.576Z,13.07
2022-10-04T02:39:03.444Z,9.88
2022-10-04T02:41:33.933Z,14.15
2022-10-04T02:44:10.972Z,14.73
2022-10-04T02:46:50.402Z,11.77
2022-10-04T02:49:26.656Z,10.48
2022-10-04T02:52:02.413Z,10.77
2022-10-04T02:57:02.635Z,8.55
2022-10-04T02:59:35.230Z,14.30
2022-10-04T03:02:04.074Z,16.10
2022-10-04T03:04:36.417Z,10.68
2022-10-04T03:07:09.219Z,11.60
2022-10-04T03:09:41.428Z,8.25
2022-10-04T03:12:13.604Z,9.23
2022-10-04T03:14:41.796Z,9.15
2022-10-04T03:17:10.281Z,7.50
2022-10-04T03:19:38.783Z,8.00
2022-10-04T03:22:10.248Z,11.48
2022-10-04T03:24:47.080Z,11.57
2022-10-04T03:27:18.300Z,8.20
2022-10-04T03:29:46.993Z,10.35
2022-10-04T03:32:16.887Z,13.68
2022-10-04T03:34:53.283Z,11.73
2022-10-04T03:37:21.601Z,10.35
2022-10-04T03:39:53.264Z,15.30
2022-10-04T03:42:24.417Z,9.00
2022-10-04T03:44:56.375Z,9.95
2022-10-04T03:47:28.806Z,12.95
2022-10-04T03:49:59.919Z,11.70
2022-10-04T03:52:32.928Z,12.63
2022-10-04T03:55:07.566Z,11.13
2022-10-04T03:57:37.900Z,12.85
2022-10-04T04:00:08.031Z,11.07
2022-10-04T04:02:46.715Z,12.48
2022-10-04T04:05:20.955Z,10.15
2022-10-04T04:07:55.151Z,5.68
2022-10-04T04:10:28.436Z,13.68
2022-10-04T04:13:00.228Z,6.47
2022-10-04T04:15:45.461Z,14.15
2022-10-04T04:18:18.666Z,12.75
2022-10-04T04:20:47.243Z,10.00
2022-10-04T04:23:25.288Z,12.43
2022-10-04T04:25:56.742Z,9.60
2022-10-04T04:28:28.084Z,9.25
2022-10-04T04:31:02.430Z,10.90
2022-10-04T04:33:34.679Z,8.48
2022-10-04T04:36:07.965Z,9.90
2022-10-04T04:38:56.410Z,12.15
2022-10-04T04:41:27.970Z,12.82
2022-10-04T04:43:56.184Z,6.80
2022-10-04T04:46:27.625Z,18.02
2022-10-04T04:49:03.216Z,11.32
2022-10-04T04:51:33.350Z,9.50
2022-10-04T04:54:04.956Z,12.95
2022-10-04T04:56:37.937Z,16.08
2022-10-04T04:59:08.988Z,14.48
2022-10-04T05:01:44.054Z,14.65
2022-10-04T05:04:19.907Z,12.40
2022-10-04T05:06:49.974Z,15.70
2022-10-04T05:09:25.880Z,15.00
2022-10-04T05:11:59.256Z,12.77
2022-10-04T05:14:28.119Z,18.48
2022-10-04T05:16:56.842Z,14.85
2022-10-04T05:19:28.740Z,15.13
2022-10-04T05:21:59.398Z,9.77
2022-10-04T05:24:30.235Z,17.02
2022-10-04T05:27:03.839Z,13.73
2022-10-04T05:29:36.367Z,19.35
2022-10-04T05:32:15.616Z,15.10
2022-10-04T05:34:45.761Z,14.25
2022-10-04T05:37:24.252Z,20.02
2022-10-04T05:40:04.238Z,14.73
2022-10-04T05:42:39.528Z,21.20
2022-10-04T05:45:18.442Z,19.48
2022-10-04T05:47:48.996Z,18.02
2022-10-04T05:50:20.607Z,20.95
2022-10-04T05:52:51.428Z,16.08
2022-10-04T05:55:29.916Z,18.02
2022-10-04T05:58:18.306Z,14.75
2022-10-04T06:01:10.615Z,11.70
2022-10-04T06:03:52.516Z,10.98
2022-10-04T06:06:25.523Z,13.15
2022-10-04T06:09:06.113Z,7.60
2022-10-04T06:11:46.310Z,13.57
2022-10-04T06:14:50.140Z,12.13
2022-10-04T06:17:48.882Z,12.85
2022-10-04T06:20:58.569Z,9.38
2022-10-04T06:23:29.922Z,8.05
2022-10-04T06:26:02.300Z,8.93
2022-10-04T06:28:33.030Z,6.95
2022-10-04T06:31:43.884Z,8.82
2022-10-04T06:34:45.166Z,6.13
2022-10-04T06:37:31.487Z,13.45
2022-10-04T06:40:26.889Z,9.20
2022-10-04T06:43:12.774Z,9.75
2022-10-04T06:45:59.685Z,4.45
2022-10-04T06:48:50.705Z,8.82
2022-10-04T06:51:34.635Z,6.35
2022-10-04T06:54:13.679Z,7.28
2022-10-04T06:57:13.415Z,13.32
2022-10-04T07:00:01.561Z,8.73
2022-10-04T07:02:35.499Z,9.65
2022-10-04T07:05:12.348Z,8.70
2022-10-04T07:07:47.462Z,5.13
2022-10-04T07:10:33.526Z,12.18
2022-10-04T07:13:14.944Z,9.65
2022-10-04T07:15:50.074Z,7.35
2022-10-04T07:18:25.227Z,11.43
2022-10-04T07:21:02.090Z,10.30
2022-10-04T07:23:35.076Z,6.57
2022-10-04T07:26:07.840Z,7.55
2022-10-04T07:28:59.683Z,9.63
2022-10-04T07:31:30.971Z,5.22
2022-10-04T07:34:03.042Z,12.30
2022-10-04T07:36:42.536Z,11.63
2022-10-04T07:39:15.314Z,7.25
2022-10-04T07:41:51.431Z,6.13
2022-10-04T07:44:30.325Z,7.88
2022-10-04T07:47:03.996Z,9.30
2022-10-04T07:49:39.284Z,6.85
2022-10-04T07:52:36.200Z,9.75
2022-10-04T07:55:15.368Z,9.93
2022-10-04T07:57:54.255Z,11.88
2022-10-04T08:00:24.996Z,12.02
2022-10-04T08:03:15.763Z,10.90
2022-10-04T08:05:49.636Z,10.27
2022-10-04T08:08:37.747Z,15.05
2022-10-04T08:11:27.791Z,11.82
2022-10-04T08:14:10.441Z,9.85
2022-10-04T08:16:47.275Z,8.50
2022-10-04T08:19:36.258Z,15.77
2022-10-04T08:22:13.389Z,11.48
2022-10-04T08:24:55.259Z,11.50
2022-10-04T08:27:37.995Z,7.03
2022-10-04T08:30:12.642Z,9.73
2022-10-04T08:33:02.029Z,8.15
2022-10-04T08:35:39.436Z,7.60
2022-10-04T08:38:21.242Z,9.05
2022-10-04T08:41:08.403Z,10.93
2022-10-04T08:44:10.979Z,13.77
2022-10-04T08:47:07.651Z,9.70
2022-10-04T08:52:53.103Z,8.35
2022-10-04T08:55:51.521Z,11.52
2022-10-04T08:58:54.862Z,9.10
2022-10-04T09:01:46.102Z,4.63
2022-10-04T09:04:40.724Z,10.65
2022-10-04T09:07:38.587Z,8.27
2022-10-04T09:10:41.052Z,8.27
2022-10-04T09:13:34.341Z,7.57
2022-10-04T09:16:16.001Z,10.57
2022-10-04T09:19:17.579Z,7.28
2022-10-04T09:22:11.499Z,9.35
2022-10-04T09:25:25.463Z,6.20
2022-10-04T09:28:26.512Z,8.50
2022-10-04T09:31:20.568Z,14.00
2022-10-04T09:34:03.623Z,9.65
2022-10-04T09:37:09.812Z,16.50
2022-10-04T09:40:27.875Z,11.80
2022-10-04T09:43:19.649Z,6.47
2022-10-04T09:46:11.409Z,11.20
2022-10-04T09:48:45.429Z,10.00
2022-10-04T09:51:40.923Z,5.93
2022-10-04T09:54:51.326Z,9.05
2022-10-04T09:57:40.803Z,10.35
2022-10-04T10:00:25.743Z,8.02
2022-10-04T10:03:24.513Z,8.85
2022-10-04T10:06:10.232Z,13.43
2022-10-04T10:08:46.770Z,5.97
2022-10-04T10:11:48.035Z,5.88
2022-10-04T10:14:52.089Z,7.30
2022-10-04T10:17:37.543Z,7.03
2022-10-04T10:20:40.259Z,9.77
2022-10-04T10:23:35.891Z,8.32
2022-10-04T10:26:24.889Z,10.52
2022-10-04T10:29:22.021Z,6.88
2022-10-04T10:32:28.104Z,8.73
2022-10-04T10:35:18.856Z,9.95
2022-10-04T10:38:04.802Z,10.75
2022-10-04T10:40:55.310Z,4.22
2022-10-04T10:43:53.150Z,5.90
2022-10-04T10:46:49.845Z,4.63
2022-10-04T10:49:42.015Z,4.63
2022-10-04T10:52:42.743Z,7.00
2022-10-04T10:55:29.992Z,8.05
2022-10-04T10:58:30.431Z,4.30
2022-10-04T11:01:18.514Z,7.40
2022-10-04T11:04:19.210Z,6.60
2022-10-04T11:07:31.091Z,6.60
2022-10-04T11:10:34.047Z,6.90
2022-10-04T11:13:21.599Z,4.20
2022-10-04T11:16:11.334Z,6.57
2022-10-04T11:19:13.374Z,5.00
2022-10-04T11:22:09.153Z,5.50
2022-10-04T11:24:57.210Z,5.22
2022-10-04T11:27:47.850Z,7.13
2022-10-04T11:30:23.592Z,4.18
2022-10-04T11:33:46.049Z,5.22
2022-10-04T11:36:30.975Z,6.00
2022-10-04T11:39:23.446Z,5.85
2022-10-04T11:41:56.707Z,3.60
2022-10-04T11:44:42.367Z,2.95
2022-10-04T11:47:25.825Z,5.28
2022-10-04T11:50:11.536Z,5.90
2022-10-04T11:53:27.326Z,6.55
2022-10-04T11:56:22.366Z,6.55
2022-10-04T11:59:19.685Z,3.55
2022-10-04T12:02:27.135Z,11.88
2022-10-04T12:05:35.735Z,4.93
2022-10-04T12:08:19.109Z,3.97
2022-10-04T12:11:02.426Z,4.75
2022-10-04T12:13:59.865Z,4.97
2022-10-04T12:16:56.910Z,2.90
2022-10-04T12:19:52.382Z,4.95
2022-10-04T12:22:44.265Z,5.40
2022-10-04T12:25:58.194Z,3.58
2022-10-04T12:28:42.670Z,4.57
2022-10-04T12:31:23.927Z,3.80
2022-10-04T12:34:01.423Z,8.55
2022-10-04T12:36:49.007Z,4.35
2022-10-04T12:39:31.887Z,7.22
2022-10-04T12:42:12.677Z,4.10
2022-10-04T12:44:53.074Z,8.20
2022-10-04T12:47:44.772Z,5.00
2022-10-04T12:50:27.188Z,3.50
2022-10-04T12:53:06.266Z,11.63
2022-10-04T12:56:03.653Z,8.27
2022-10-04T12:58:44.057Z,7.50
2022-10-04T13:01:20.504Z,6.20
2022-10-04T13:04:22.602Z,4.28
2022-10-04T13:07:01.923Z,4.90
2022-10-04T13:09:55.143Z,7.28
2022-10-04T13:12:39.650Z,3.40
2022-10-04T13:15:24.397Z,6.65
2022-10-04T13:18:02.172Z,4.53
2022-10-04T13:20:51.491Z,2.08
2022-10-04T13:23:31.639Z,3.72
2022-10-04T13:26:17.877Z,5.95
2022-10-04T13:31:25.915Z,5.68
2022-10-04T13:34:02.818Z,2.30
2022-10-04T13:36:51.065Z,6.07
2022-10-04T13:39:41.470Z,2.30
2022-10-04T13:42:27.422Z,3.25
2022-10-04T13:45:10.838Z,3.72
2022-10-04T13:48:02.990Z,9.93
2022-10-04T13:50:45.838Z,3.83
2022-10-04T13:53:43.675Z,6.80
2022-10-04T13:56:40.290Z,5.65
2022-10-04T13:59:20.217Z,1.75
2022-10-04T14:02:13.958Z,5.57
2022-10-04T14:05:01.191Z,2.10
2022-10-04T14:07:51.365Z,4.60
2022-10-04T14:11:00.232Z,2.97
2022-10-04T14:14:10.343Z,4.72
2022-10-04T14:17:13.065Z,5.25
2022-10-04T14:20:26.112Z,4.88
2022-10-04T14:23:32.163Z,2.58
2022-10-04T14:26:25.102Z,2.88
2022-10-04T14:29:29.784Z,4.15
2022-10-04T14:32:20.469Z,2.35
2022-10-04T14:35:02.235Z,6.07
2022-10-04T14:38:04.423Z,2.80
2022-10-04T14:40:51.123Z,3.13
2022-10-04T14:43:54.370Z,2.95
2022-10-04T14:46:29.695Z,3.83
2022-10-04T14:49:12.396Z,5.95
2022-10-04T14:52:08.381Z,3.78
2022-10-04T14:54:52.480Z,3.70
2022-10-04T14:57:40.160Z,6.25
2022-10-04T15:00:20.124Z,1.63
2022-10-04T15:03:13.639Z,2.17
2022-10-04T15:06:21.267Z,3.58
2022-10-04T15:09:19.181Z,4.13
2022-10-04T15:15:12.124Z,4.68
2022-10-04T15:17:54.574Z,3.67
2022-10-04T15:20:26.544Z,6.95
2022-10-04T15:22:58.524Z,6.15
2022-10-04T15:25:41.864Z,3.67
2022-10-04T15:28:32.021Z,9.90
2022-10-04T15:31:06.212Z,3.13
2022-10-04T15:33:42.337Z,3.95
2022-10-04T15:36:31.695Z,2.58
2022-10-04T15:39:06.256Z,2.28
2022-10-04T15:41:46.940Z,4.55
2022-10-04T15:44:48.413Z,3.65
2022-10-04T15:47:24.889Z,4.90
2022-10-04T15:50:04.206Z,5.57
2022-10-04T15:53:02.619Z,4.15
2022-10-04T15:55:50.392Z,5.28
2022-10-04T15:58:32.157Z,3.28
2022-10-04T16:01:17.847Z,4.00
2022-10-04T16:03:53.545Z,4.07
2022-10-04T16:06:26.726Z,3.55
2022-10-04T16:09:18.779Z,3.88
2022-10-04T16:12:04.471Z,5.63
2022-10-04T16:15:09.422Z,3.13
2022-10-04T16:18:07.288Z,2.97
2022-10-04T16:20:56.914Z,5.10
2022-10-04T16:23:43.866Z,7.28
2022-10-04T16:26:14.041Z,5.22
2022-10-04T16:29:06.567Z,6.78
2022-10-04T16:31:53.423Z,4.55
2022-10-04T16:34:46.345Z,2.97
2022-10-04T16:37:19.528Z,4.32
2022-10-04T16:40:03.206Z,5.35
2022-10-04T16:42:48.086Z,3.38
2022-10-04T16:45:37.141Z,6.07
2022-10-04T16:48:15.142Z,4.82
2022-10-04T16:51:01.155Z,3.30
2022-10-04T16:53:44.832Z,7.18
2022-10-04T16:56:17.999Z,5.15
2022-10-04T16:59:00.367Z,4.47
2022-10-04T17:01:54.959Z,3.20
2022-10-04T17:05:14.156Z,4.75
2022-10-04T17:07:59.135Z,3.92
2022-10-04T17:10:39.288Z,4.25
2022-10-04T17:13:25.759Z,5.07
2022-10-04T17:16:05.149Z,3.88
2022-10-04T17:18:44.716Z,4.50
2022-10-04T17:21:24.762Z,5.38
2022-10-04T17:24:06.665Z,4.18
2022-10-04T17:26:48.758Z,6.80
2022-10-04T17:29:32.510Z,5.30
2022-10-04T17:32:08.251Z,4.18
2022-10-04T17:34:49.777Z,2.78
2022-10-04T17:37:27.450Z,5.50
2022-10-04T17:40:09.005Z,5.13
2022-10-04T17:42:47.697Z,3.50
2022-10-04T17:45:46.195Z,3.20
2022-10-04T17:48:35.432Z,4.93
2022-10-04T17:51:41.656Z,3.95
2022-10-04T17:54:32.504Z,13.50
2022-10-04T17:57:15.925Z,3.83
2022-10-04T17:59:47.236Z,4.70
2022-10-04T18:02:21.411Z,5.80
2022-10-04T18:04:55.822Z,3.53
2022-10-04T18:07:27.734Z,4.43
2022-10-04T18:09:59.933Z,5.93
2022-10-04T18:12:31.401Z,5.20
2022-10-04T18:15:07.336Z,6.50
2022-10-04T18:17:41.726Z,8.65
2022-10-04T18:20:27.765Z,10.82
2022-10-04T18:23:00.287Z,5.15
2022-10-04T18:25:30.980Z,7.25
2022-10-04T18:28:06.959Z,7.75
2022-10-04T18:30:36.132Z,6.88
2022-10-04T18:33:16.497Z,7.88
2022-10-04T18:36:17.696Z,6.13
2022-10-04T18:38:48.061Z,8.27
2022-10-04T18:41:20.252Z,7.53
2022-10-04T18:43:53.178Z,5.00
2022-10-04T18:46:23.246Z,6.93
2022-10-04T18:48:57.989Z,8.82
2022-10-04T18:51:29.804Z,4.85
2022-10-04T18:54:13.358Z,5.43
2022-10-04T18:56:51.196Z,7.57
2022-10-04T18:59:51.441Z,5.25
2022-10-04T19:02:29.370Z,10.70
2022-10-04T19:05:08.843Z,6.70
2022-10-04T19:07:44.321Z,8.13
2022-10-04T19:10:23.137Z,5.43
2022-10-04T19:13:02.534Z,7.22
2022-10-04T19:15:47.727Z,11.45
2022-10-04T19:18:30.813Z,8.82
2022-10-04T19:21:11.284Z,7.25
2022-10-04T19:23:51.214Z,8.77
2022-10-04T19:26:31.989Z,6.93
2022-10-04T19:29:11.688Z,4.80
2022-10-04T19:31:49.278Z,6.65
2022-10-04T19:34:22.247Z,7.38
2022-10-04T19:36:58.403Z,7.78
2022-10-04T19:39:36.910Z,5.97
2022-10-04T19:42:10.682Z,7.38
2022-10-04T19:44:52.813Z,6.78
2022-10-04T19:47:35.189Z,5.75
2022-10-04T19:50:16.291Z,8.80
2022-10-04T19:52:53.315Z,8.30
2022-10-04T19:55:25.059Z,7.22
2022-10-04T19:58:01.540Z,6.55
2022-10-04T20:00:29.546Z,6.57
2022-10-04T20:02:57.556Z,5.65
2022-10-04T20:05:25.920Z,7.25
2022-10-04T20:08:01.541Z,5.45
2022-10-04T20:10:33.476Z,5.88
2022-10-04T20:13:21.447Z,7.60
2022-10-04T20:15:51.654Z,8.32
2022-10-04T20:19:09.713Z,7.75
2022-10-04T20:21:38.018Z,8.63
2022-10-04T20:24:17.228Z,4.72
2022-10-04T20:26:56.840Z,5.32
2022-10-04T20:30:16.537Z,5.70
2022-10-04T20:33:01.120Z,6.53
2022-10-04T20:36:09.632Z,4.93
2022-10-04T20:39:06.682Z,5.93
2022-10-04T20:42:04.426Z,10.85
2022-10-04T20:44:56.177Z,7.78
2022-10-04T20:47:40.127Z,8.15
2022-10-04T20:50:27.096Z,5.90
2022-10-04T20:52:58.469Z,8.43
2022-10-04T20:55:28.424Z,9.15
2022-10-04T20:58:01.393Z,7.55
2022-10-04T21:00:33.868Z,6.70
2022-10-04T21:03:10.202Z,8.27
2022-10-04T21:05:38.963Z,7.78
2022-10-04T21:08:14.479Z,8.05
2022-10-04T21:11:04.936Z,7.32
2022-10-04T21:14:08.071Z,5.32
2022-10-04T21:16:50.902Z,5.32
2022-10-04T21:19:46.733Z,8.60
2022-10-04T21:22:37.725Z,7.80
2022-10-04T21:25:40.657Z,6.97
2022-10-04T21:28:32.598Z,6.82
2022-10-04T21:31:03.658Z,5.80
2022-10-04T21:33:36.126Z,5.10
2022-10-04T21:36:05.243Z,6.03
2022-10-04T21:38:33.335Z,6.00
2022-10-04T21:41:01.593Z,4.72
2022-10-04T21:43:29.895Z,7.50
2022-10-04T21:45:57.939Z,7.32
2022-10-04T21:48:27.773Z,5.82
2022-10-04T21:50:56.318Z,8.13
2022-10-04T21:53:24.368Z,5.93
2022-10-04T21:55:52.468Z,5.75
2022-10-04T21:58:20.491Z,8.05
2022-10-04T22:00:48.533Z,7.68
2022-10-04T22:03:16.563Z,8.13
2022-10-04T22:05:46.168Z,6.05
2022-10-04T22:08:14.224Z,7.68
2022-10-04T22:10:43.238Z,5.70
2022-10-04T22:13:11.490Z,11.02
2022-10-04T22:15:39.516Z,7.50
2022-10-04T22:18:07.987Z,6.05
2022-10-04T22:20:36.562Z,4.70
2022-10-04T22:23:11.267Z,6.03
2022-10-04T22:25:41.996Z,7.00
2022-10-04T22:28:19.263Z,9.77
2022-10-04T22:30:49.431Z,8.43
2022-10-04T22:33:28.178Z,5.97
2022-10-04T22:35:58.275Z,8.07
2022-10-04T22:38:27.675Z,4.50
2022-10-04T22:40:55.802Z,6.82
2022-10-04T22:43:23.934Z,6.00
2022-10-04T22:45:59.092Z,7.25
2022-10-04T22:48:29.042Z,6.95
2022-10-04T22:50:57.415Z,5.22
2022-10-04T22:53:28.848Z,5.43
2022-10-04T22:55:58.194Z,6.68
2022-10-04T22:58:27.801Z,5.32
2022-10-04T23:00:56.460Z,8.45
2022-10-04T23:03:31.259Z,5.00
2022-10-04T23:05:59.879Z,4.93
2022-10-04T23:08:29.596Z,3.72
2022-10-04T23:10:59.193Z,3.70
2022-10-04T23:13:28.113Z,6.88
2022-10-04T23:16:00.205Z,3.85
2022-10-04T23:18:29.420Z,3.25
2022-10-04T23:21:00.765Z,4.55
2022-10-04T23:23:32.476Z,4.60
2022-10-04T23:26:00.575Z,5.30
2022-10-04T23:28:28.764Z,5.63
2022-10-04T23:31:03.375Z,5.43
2022-10-04T23:33:31.601Z,5.35
2022-10-04T23:35:59.783Z,3.40
2022-10-04T23:38:30.163Z,5.97
2022-10-04T23:40:58.127Z,3.40
2022-10-04T23:43:26.905Z,4.20
2022-10-04T23:45:56.917Z,5.40
2022-10-04T23:48:28.191Z,4.13
2022-10-04T23:50:59.789Z,5.25
2022-10-04T23:53:31.987Z,5.65
2022-10-04T23:56:03.974Z,7.80
2022-10-04T23:58:35.301Z,5.45
